sensor_id;sensor_type;location;lat;lon;timestamp;temperature;humidity
3023;DHT22;1521;53.584;9.938;2023-02-15T00:01:34;3.80;97.60
3023;DHT22;1521;53.584;9.938;2023-02-15T00:04:00;3.80;99.90
3023;DHT22;1521;53.584;9.938;2023-02-15T00:06:26;3.90;99.90
3023;DHT22;1521;53.584;9.938;2023-02-15T00:08:53;3.90;99.90
3023;DHT22;1521;53.584;9.938;2023-02-15T00:11:19;3.90;99.90
3023;DHT22;1521;53.584;9.938;2023-02-15T00:14:18;3.90;99.90
3023;DHT22;1521;53.584;9.938;2023-02-15T00:16:44;3.90;99.90
3023;DHT22;1521;53.584;9.938;2023-02-15T00:19:11;3.90;99.90
3023;DHT22;1521;53.584;9.938;2023-02-15T00:21:39;4.00;99.90
3023;DHT22;1521;53.584;9.938;2023-02-15T00:24:08;4.00;99.90
3023;DHT22;1521;53.584;9.938;2023-02-15T00:26:34;4.00;99.90
3023;DHT22;1521;53.584;9.938;2023-02-15T00:29:00;4.00;99.90
3023;DHT22;1521;53.584;9.938;2023-02-15T00:31:28;4.00;99.90
3023;DHT22;1521;53.584;9.938;2023-02-15T00:33:56;4.00;99.90
3023;DHT22;1521;53.584;9.938;2023-02-15T00:36:21;4.10;99.90
3023;DHT22;1521;53.584;9.938;2023-02-15T00:38:47;4.10;99.90
3023;DHT22;1521;53.584;9.938;2023-02-15T00:41:12;4.10;99.90
3023;DHT22;1521;53.584;9.938;2023-02-15T00:43:38;4.10;99.90
3023;DHT22;1521;53.584;9.938;2023-02-15T00:46:05;4.00;99.90
3023;DHT22;1521;53.584;9.938;2023-02-15T00:48:31;4.00;99.90
3023;DHT22;1521;53.584;9.938;2023-02-15T00:50:59;4.00;99.90
3023;DHT22;1521;53.584;9.938;2023-02-15T00:53:25;4.00;99.90
3023;DHT22;1521;53.584;9.938;2023-02-15T00:55:51;4.00;99.90
3023;DHT22;1521;53.584;9.938;2023-02-15T00:58:17;4.10;99.90
3023;DHT22;1521;53.584;9.938;2023-02-15T01:00:44;4.10;99.90
3023;DHT22;1521;53.584;9.938;2023-02-15T01:03:12;4.20;99.90
3023;DHT22;1521;53.584;9.938;2023-02-15T01:05:38;4.20;99.90
3023;DHT22;1521;53.584;9.938;2023-02-15T01:08:04;4.20;99.90
3023;DHT22;1521;53.584;9.938;2023-02-15T01:10:30;4.20;99.90
3023;DHT22;1521;53.584;9.938;2023-02-15T01:12:56;4.20;99.90
3023;DHT22;1521;53.584;9.938;2023-02-15T01:15:22;4.20;99.90
3023;DHT22;1521;53.584;9.938;2023-02-15T01:17:48;4.20;99.90
3023;DHT22;1521;53.584;9.938;2023-02-15T01:20:23;4.30;99.90
3023;DHT22;1521;53.584;9.938;2023-02-15T01:22:49;4.20;99.90
3023;DHT22;1521;53.584;9.938;2023-02-15T01:25:16;4.20;99.90
3023;DHT22;1521;53.584;9.938;2023-02-15T01:27:42;4.10;99.90
3023;DHT22;1521;53.584;9.938;2023-02-15T01:30:09;4.10;99.90
3023;DHT22;1521;53.584;9.938;2023-02-15T01:32:35;4.10;99.90
3023;DHT22;1521;53.584;9.938;2023-02-15T01:35:01;4.10;99.90
3023;DHT22;1521;53.584;9.938;2023-02-15T01:37:26;4.10;99.90
3023;DHT22;1521;53.584;9.938;2023-02-15T01:39:52;4.20;99.90
3023;DHT22;1521;53.584;9.938;2023-02-15T01:42:26;4.20;99.90
3023;DHT22;1521;53.584;9.938;2023-02-15T01:44:57;4.20;99.90
3023;DHT22;1521;53.584;9.938;2023-02-15T01:47:32;4.20;99.90
3023;DHT22;1521;53.584;9.938;2023-02-15T01:50:10;4.10;99.90
3023;DHT22;1521;53.584;9.938;2023-02-15T01:52:44;4.10;99.90
3023;DHT22;1521;53.584;9.938;2023-02-15T01:55:11;4.10;99.90
3023;DHT22;1521;53.584;9.938;2023-02-15T01:57:38;4.10;99.90
3023;DHT22;1521;53.584;9.938;2023-02-15T02:00:06;4.10;99.90
3023;DHT22;1521;53.584;9.938;2023-02-15T02:02:33;4.10;99.90
3023;DHT22;1521;53.584;9.938;2023-02-15T02:05:01;4.10;99.90
3023;DHT22;1521;53.584;9.938;2023-02-15T02:07:33;4.00;99.90
3023;DHT22;1521;53.584;9.938;2023-02-15T02:10:00;4.00;99.90
3023;DHT22;1521;53.584;9.938;2023-02-15T02:12:26;4.00;99.90
3023;DHT22;1521;53.584;9.938;2023-02-15T02:14:53;4.00;99.90
3023;DHT22;1521;53.584;9.938;2023-02-15T02:17:25;4.00;99.90
3023;DHT22;1521;53.584;9.938;2023-02-15T02:34:32;3.90;99.90
3023;DHT22;1521;53.584;9.938;2023-02-15T02:42:40;4.10;99.90
3023;DHT22;1521;53.584;9.938;2023-02-15T02:46:00;4.10;99.90
3023;DHT22;1521;53.584;9.938;2023-02-15T02:48:34;4.00;99.90
3023;DHT22;1521;53.584;9.938;2023-02-15T02:51:00;4.10;99.90
3023;DHT22;1521;53.584;9.938;2023-02-15T02:53:28;4.10;99.90
3023;DHT22;1521;53.584;9.938;2023-02-15T02:56:17;4.00;99.90
3023;DHT22;1521;53.584;9.938;2023-02-15T02:58:45;4.00;99.90
3023;DHT22;1521;53.584;9.938;2023-02-15T03:01:18;4.00;99.90
3023;DHT22;1521;53.584;9.938;2023-02-15T03:03:55;4.00;99.90
3023;DHT22;1521;53.584;9.938;2023-02-15T03:06:35;4.00;99.90
3023;DHT22;1521;53.584;9.938;2023-02-15T03:09:08;3.90;99.90
3023;DHT22;1521;53.584;9.938;2023-02-15T03:11:43;4.00;99.90
3023;DHT22;1521;53.584;9.938;2023-02-15T03:14:09;4.00;99.90
3023;DHT22;1521;53.584;9.938;2023-02-15T03:16:36;4.10;99.90
3023;DHT22;1521;53.584;9.938;2023-02-15T03:19:10;4.00;99.90
3023;DHT22;1521;53.584;9.938;2023-02-15T03:21:48;4.00;99.90
3023;DHT22;1521;53.584;9.938;2023-02-15T03:24:19;4.00;99.90
3023;DHT22;1521;53.584;9.938;2023-02-15T03:26:49;4.00;99.90
3023;DHT22;1521;53.584;9.938;2023-02-15T03:29:17;3.90;99.90
3023;DHT22;1521;53.584;9.938;2023-02-15T03:31:48;4.00;99.90
3023;DHT22;1521;53.584;9.938;2023-02-15T03:34:15;3.90;99.90
3023;DHT22;1521;53.584;9.938;2023-02-15T03:42:08;4.00;99.90
3023;DHT22;1521;53.584;9.938;2023-02-15T03:45:02;4.00;99.90
3023;DHT22;1521;53.584;9.938;2023-02-15T03:47:36;3.90;99.90
3023;DHT22;1521;53.584;9.938;2023-02-15T03:50:10;4.00;99.90
3023;DHT22;1521;53.584;9.938;2023-02-15T03:53:11;3.90;99.90
3023;DHT22;1521;53.584;9.938;2023-02-15T03:55:39;3.90;99.90
3023;DHT22;1521;53.584;9.938;2023-02-15T03:58:05;3.90;99.90
3023;DHT22;1521;53.584;9.938;2023-02-15T04:00:55;3.90;99.90
3023;DHT22;1521;53.584;9.938;2023-02-15T04:04:08;3.90;99.90
3023;DHT22;1521;53.584;9.938;2023-02-15T04:06:36;3.90;99.90
3023;DHT22;1521;53.584;9.938;2023-02-15T04:09:02;3.90;99.90
3023;DHT22;1521;53.584;9.938;2023-02-15T04:11:46;3.90;99.90
3023;DHT22;1521;53.584;9.938;2023-02-15T04:14:12;3.90;99.90
3023;DHT22;1521;53.584;9.938;2023-02-15T04:16:56;3.80;99.90
3023;DHT22;1521;53.584;9.938;2023-02-15T04:19:21;3.90;99.90
3023;DHT22;1521;53.584;9.938;2023-02-15T04:22:05;4.00;99.90
3023;DHT22;1521;53.584;9.938;2023-02-15T04:24:49;3.90;99.90
3023;DHT22;1521;53.584;9.938;2023-02-15T04:27:34;3.90;99.90
3023;DHT22;1521;53.584;9.938;2023-02-15T04:29:59;3.80;99.90
3023;DHT22;1521;53.584;9.938;2023-02-15T04:32:25;3.90;99.90
3023;DHT22;1521;53.584;9.938;2023-02-15T04:34:50;4.00;99.90
3023;DHT22;1521;53.584;9.938;2023-02-15T04:37:16;4.00;99.90
3023;DHT22;1521;53.584;9.938;2023-02-15T04:39:41;3.90;99.90
3023;DHT22;1521;53.584;9.938;2023-02-15T04:42:07;3.90;99.90
3023;DHT22;1521;53.584;9.938;2023-02-15T04:44:32;3.80;99.90
3023;DHT22;1521;53.584;9.938;2023-02-15T04:46:58;3.80;99.90
3023;DHT22;1521;53.584;9.938;2023-02-15T04:49:23;3.90;99.90
3023;DHT22;1521;53.584;9.938;2023-02-15T04:51:49;3.80;99.90
3023;DHT22;1521;53.584;9.938;2023-02-15T04:54:15;3.80;99.90
3023;DHT22;1521;53.584;9.938;2023-02-15T04:56:40;3.70;99.90
3023;DHT22;1521;53.584;9.938;2023-02-15T04:59:06;3.70;99.90
3023;DHT22;1521;53.584;9.938;2023-02-15T05:01:31;3.80;99.90
3023;DHT22;1521;53.584;9.938;2023-02-15T05:03:57;3.70;99.90
3023;DHT22;1521;53.584;9.938;2023-02-15T05:06:23;3.70;99.90
3023;DHT22;1521;53.584;9.938;2023-02-15T05:08:48;3.70;99.90
3023;DHT22;1521;53.584;9.938;2023-02-15T05:11:14;3.80;99.90
3023;DHT22;1521;53.584;9.938;2023-02-15T05:13:39;3.70;99.90
3023;DHT22;1521;53.584;9.938;2023-02-15T05:16:05;3.80;99.90
3023;DHT22;1521;53.584;9.938;2023-02-15T05:18:31;3.80;99.90
3023;DHT22;1521;53.584;9.938;2023-02-15T05:20:56;3.70;99.90
3023;DHT22;1521;53.584;9.938;2023-02-15T05:23:22;3.70;99.90
3023;DHT22;1521;53.584;9.938;2023-02-15T05:25:49;3.60;99.90
3023;DHT22;1521;53.584;9.938;2023-02-15T05:28:33;3.50;99.90
3023;DHT22;1521;53.584;9.938;2023-02-15T05:33:34;3.50;99.90
3023;DHT22;1521;53.584;9.938;2023-02-15T05:36:00;3.50;99.90
3023;DHT22;1521;53.584;9.938;2023-02-15T05:38:26;3.50;99.90
3023;DHT22;1521;53.584;9.938;2023-02-15T05:40:52;3.40;99.90
3023;DHT22;1521;53.584;9.938;2023-02-15T05:43:18;3.50;99.90
3023;DHT22;1521;53.584;9.938;2023-02-15T05:45:48;3.50;99.90
3023;DHT22;1521;53.584;9.938;2023-02-15T05:48:14;3.40;99.90
3023;DHT22;1521;53.584;9.938;2023-02-15T05:50:40;3.40;99.90
3023;DHT22;1521;53.584;9.938;2023-02-15T05:53:05;3.40;99.90
3023;DHT22;1521;53.584;9.938;2023-02-15T05:55:31;3.30;99.90
3023;DHT22;1521;53.584;9.938;2023-02-15T05:57:57;3.30;99.90
3023;DHT22;1521;53.584;9.938;2023-02-15T06:00:22;3.30;99.90
3023;DHT22;1521;53.584;9.938;2023-02-15T06:02:48;3.30;99.90
3023;DHT22;1521;53.584;9.938;2023-02-15T06:05:14;3.20;99.90
3023;DHT22;1521;53.584;9.938;2023-02-15T06:07:43;3.10;99.90
3023;DHT22;1521;53.584;9.938;2023-02-15T06:10:09;3.10;99.90
3023;DHT22;1521;53.584;9.938;2023-02-15T06:12:34;3.20;99.90
3023;DHT22;1521;53.584;9.938;2023-02-15T06:15:00;3.10;99.90
3023;DHT22;1521;53.584;9.938;2023-02-15T06:17:25;3.10;99.90
3023;DHT22;1521;53.584;9.938;2023-02-15T06:19:51;3.10;99.90
3023;DHT22;1521;53.584;9.938;2023-02-15T06:22:16;3.20;99.90
3023;DHT22;1521;53.584;9.938;2023-02-15T06:24:42;3.20;99.90
3023;DHT22;1521;53.584;9.938;2023-02-15T06:27:09;3.20;99.90
3023;DHT22;1521;53.584;9.938;2023-02-15T06:29:35;3.20;99.90
3023;DHT22;1521;53.584;9.938;2023-02-15T06:32:01;3.30;99.90
3023;DHT22;1521;53.584;9.938;2023-02-15T06:34:26;3.30;99.90
3023;DHT22;1521;53.584;9.938;2023-02-15T06:36:52;3.30;99.90
3023;DHT22;1521;53.584;9.938;2023-02-15T06:39:17;3.30;99.90
3023;DHT22;1521;53.584;9.938;2023-02-15T06:41:43;3.30;99.90
3023;DHT22;1521;53.584;9.938;2023-02-15T06:44:09;3.20;99.90
3023;DHT22;1521;53.584;9.938;2023-02-15T06:46:34;3.20;99.90
3023;DHT22;1521;53.584;9.938;2023-02-15T06:49:00;3.20;99.90
3023;DHT22;1521;53.584;9.938;2023-02-15T06:51:26;3.20;99.90
3023;DHT22;1521;53.584;9.938;2023-02-15T06:53:51;3.20;99.90
3023;DHT22;1521;53.584;9.938;2023-02-15T06:56:17;3.20;99.90
3023;DHT22;1521;53.584;9.938;2023-02-15T06:58:42;3.30;99.90
3023;DHT22;1521;53.584;9.938;2023-02-15T07:01:09;3.30;99.90
3023;DHT22;1521;53.584;9.938;2023-02-15T07:03:35;3.30;99.90
3023;DHT22;1521;53.584;9.938;2023-02-15T07:06:02;3.30;99.90
3023;DHT22;1521;53.584;9.938;2023-02-15T07:08:29;3.30;99.90
3023;DHT22;1521;53.584;9.938;2023-02-15T07:10:55;3.30;99.90
3023;DHT22;1521;53.584;9.938;2023-02-15T07:13:44;3.40;99.90
3023;DHT22;1521;53.584;9.938;2023-02-15T07:16:10;3.30;99.90
3023;DHT22;1521;53.584;9.938;2023-02-15T07:18:36;3.20;99.90
3023;DHT22;1521;53.584;9.938;2023-02-15T07:21:02;3.20;99.90
3023;DHT22;1521;53.584;9.938;2023-02-15T07:23:28;3.10;99.90
3023;DHT22;1521;53.584;9.938;2023-02-15T07:25:58;3.10;99.90
3023;DHT22;1521;53.584;9.938;2023-02-15T07:28:24;3.00;99.90
3023;DHT22;1521;53.584;9.938;2023-02-15T07:30:49;3.00;99.90
3023;DHT22;1521;53.584;9.938;2023-02-15T07:33:15;3.10;99.90
3023;DHT22;1521;53.584;9.938;2023-02-15T07:35:51;3.10;99.90
3023;DHT22;1521;53.584;9.938;2023-02-15T07:38:18;3.20;99.90
3023;DHT22;1521;53.584;9.938;2023-02-15T07:40:44;3.10;99.90
3023;DHT22;1521;53.584;9.938;2023-02-15T07:43:10;3.10;99.90
3023;DHT22;1521;53.584;9.938;2023-02-15T07:45:36;3.20;99.90
3023;DHT22;1521;53.584;9.938;2023-02-15T07:48:02;3.20;99.90
3023;DHT22;1521;53.584;9.938;2023-02-15T07:50:28;3.40;99.90
3023;DHT22;1521;53.584;9.938;2023-02-15T07:52:53;3.30;99.90
3023;DHT22;1521;53.584;9.938;2023-02-15T07:55:19;3.20;99.90
3023;DHT22;1521;53.584;9.938;2023-02-15T07:57:46;3.10;99.90
3023;DHT22;1521;53.584;9.938;2023-02-15T08:00:13;3.10;99.90
3023;DHT22;1521;53.584;9.938;2023-02-15T08:02:39;3.20;99.90
3023;DHT22;1521;53.584;9.938;2023-02-15T08:05:06;3.20;99.90
3023;DHT22;1521;53.584;9.938;2023-02-15T08:07:31;3.20;99.90
3023;DHT22;1521;53.584;9.938;2023-02-15T08:09:57;3.20;99.90
3023;DHT22;1521;53.584;9.938;2023-02-15T08:12:26;3.20;99.90
3023;DHT22;1521;53.584;9.938;2023-02-15T08:14:51;3.30;99.90
3023;DHT22;1521;53.584;9.938;2023-02-15T08:17:17;3.40;99.90
3023;DHT22;1521;53.584;9.938;2023-02-15T08:19:43;3.30;99.90
3023;DHT22;1521;53.584;9.938;2023-02-15T08:22:12;3.20;99.90
3023;DHT22;1521;53.584;9.938;2023-02-15T08:24:39;3.30;99.90
3023;DHT22;1521;53.584;9.938;2023-02-15T08:27:10;3.30;99.90
3023;DHT22;1521;53.584;9.938;2023-02-15T08:29:37;3.30;99.90
3023;DHT22;1521;53.584;9.938;2023-02-15T08:32:06;3.30;99.90
3023;DHT22;1521;53.584;9.938;2023-02-15T08:34:35;3.20;99.90
3023;DHT22;1521;53.584;9.938;2023-02-15T08:37:01;3.20;99.90
3023;DHT22;1521;53.584;9.938;2023-02-15T08:39:27;3.10;99.90
3023;DHT22;1521;53.584;9.938;2023-02-15T08:41:52;3.10;99.90
3023;DHT22;1521;53.584;9.938;2023-02-15T08:44:19;3.10;99.90
3023;DHT22;1521;53.584;9.938;2023-02-15T08:46:46;3.20;99.90
3023;DHT22;1521;53.584;9.938;2023-02-15T08:49:17;3.20;99.90
3023;DHT22;1521;53.584;9.938;2023-02-15T08:51:43;3.30;99.90
3023;DHT22;1521;53.584;9.938;2023-02-15T08:54:12;3.30;99.90
3023;DHT22;1521;53.584;9.938;2023-02-15T08:56:41;3.20;99.90
3023;DHT22;1521;53.584;9.938;2023-02-15T08:59:11;3.10;99.90
3023;DHT22;1521;53.584;9.938;2023-02-15T09:01:37;3.20;99.90
3023;DHT22;1521;53.584;9.938;2023-02-15T09:04:07;3.20;99.90
3023;DHT22;1521;53.584;9.938;2023-02-15T09:06:37;3.30;99.90
3023;DHT22;1521;53.584;9.938;2023-02-15T09:09:03;3.30;99.90
3023;DHT22;1521;53.584;9.938;2023-02-15T09:11:38;3.40;99.90
3023;DHT22;1521;53.584;9.938;2023-02-15T09:14:16;3.50;99.90
3023;DHT22;1521;53.584;9.938;2023-02-15T09:16:44;3.50;99.90
3023;DHT22;1521;53.584;9.938;2023-02-15T09:19:11;3.60;99.90
3023;DHT22;1521;53.584;9.938;2023-02-15T09:21:38;3.70;99.90
3023;DHT22;1521;53.584;9.938;2023-02-15T09:24:06;3.70;90.20
3023;DHT22;1521;53.584;9.938;2023-02-15T09:26:35;3.80;83.10
3023;DHT22;1521;53.584;9.938;2023-02-15T09:29:01;3.80;43.50
3023;DHT22;1521;53.584;9.938;2023-02-15T09:31:31;3.70;1.00
3023;DHT22;1521;53.584;9.938;2023-02-15T09:33:58;3.70;1.00
3023;DHT22;1521;53.584;9.938;2023-02-15T09:36:32;3.70;1.00
3023;DHT22;1521;53.584;9.938;2023-02-15T09:39:11;3.70;1.00
3023;DHT22;1521;53.584;9.938;2023-02-15T09:42:13;3.70;1.00
3023;DHT22;1521;53.584;9.938;2023-02-15T09:48:14;3.90;1.00
3023;DHT22;1521;53.584;9.938;2023-02-15T09:55:48;3.90;1.00
3023;DHT22;1521;53.584;9.938;2023-02-15T09:58:53;4.00;1.00
3023;DHT22;1521;53.584;9.938;2023-02-15T10:07:18;4.40;1.00
3023;DHT22;1521;53.584;9.938;2023-02-15T10:17:52;4.50;1.00
3023;DHT22;1521;53.584;9.938;2023-02-15T10:31:55;4.40;99.90
3023;DHT22;1521;53.584;9.938;2023-02-15T10:34:38;4.40;99.90
3023;DHT22;1521;53.584;9.938;2023-02-15T10:37:21;4.40;1.00
3023;DHT22;1521;53.584;9.938;2023-02-15T10:55:50;5.10;1.00
3023;DHT22;1521;53.584;9.938;2023-02-15T11:06:13;6.30;99.90
3023;DHT22;1521;53.584;9.938;2023-02-15T11:08:44;7.00;99.90
3023;DHT22;1521;53.584;9.938;2023-02-15T11:11:19;7.40;99.90
3023;DHT22;1521;53.584;9.938;2023-02-15T11:13:53;7.30;1.00
3023;DHT22;1521;53.584;9.938;2023-02-15T11:16:27;7.20;1.00
3023;DHT22;1521;53.584;9.938;2023-02-15T11:18:58;7.30;99.90
3023;DHT22;1521;53.584;9.938;2023-02-15T11:21:34;7.60;1.00
3023;DHT22;1521;53.584;9.938;2023-02-15T11:24:12;8.00;99.90
3023;DHT22;1521;53.584;9.938;2023-02-15T11:26:45;8.20;1.00
3023;DHT22;1521;53.584;9.938;2023-02-15T11:31:46;9.60;99.90
3023;DHT22;1521;53.584;9.938;2023-02-15T11:34:32;10.40;99.90
3023;DHT22;1521;53.584;9.938;2023-02-15T11:37:04;11.50;1.00
3023;DHT22;1521;53.584;9.938;2023-02-15T11:39:31;12.60;99.90
3023;DHT22;1521;53.584;9.938;2023-02-15T11:42:06;13.20;6.60
3023;DHT22;1521;53.584;9.938;2023-02-15T11:44:35;13.60;1.00
3023;DHT22;1521;53.584;9.938;2023-02-15T11:47:02;13.50;1.00
3023;DHT22;1521;53.584;9.938;2023-02-15T11:49:33;13.30;1.00
3023;DHT22;1521;53.584;9.938;2023-02-15T11:52:02;12.90;1.00
3023;DHT22;1521;53.584;9.938;2023-02-15T11:54:31;12.60;1.00
3023;DHT22;1521;53.584;9.938;2023-02-15T11:59:37;13.00;1.00
3023;DHT22;1521;53.584;9.938;2023-02-15T12:02:19;13.50;1.00
3023;DHT22;1521;53.584;9.938;2023-02-15T12:04:51;13.90;1.00
3023;DHT22;1521;53.584;9.938;2023-02-15T12:07:40;14.30;1.00
3023;DHT22;1521;53.584;9.938;2023-02-15T12:10:25;14.80;1.00
3023;DHT22;1521;53.584;9.938;2023-02-15T12:13:13;15.10;1.00
3023;DHT22;1521;53.584;9.938;2023-02-15T12:15:45;14.80;1.00
3023;DHT22;1521;53.584;9.938;2023-02-15T12:18:37;15.10;1.00
3023;DHT22;1521;53.584;9.938;2023-02-15T12:21:30;15.40;1.00
3023;DHT22;1521;53.584;9.938;2023-02-15T12:23:57;15.70;1.00
3023;DHT22;1521;53.584;9.938;2023-02-15T12:26:34;16.30;1.00
3023;DHT22;1521;53.584;9.938;2023-02-15T12:29:06;17.20;1.00
3023;DHT22;1521;53.584;9.938;2023-02-15T12:34:08;17.10;1.00
3023;DHT22;1521;53.584;9.938;2023-02-15T12:36:50;17.00;1.00
3023;DHT22;1521;53.584;9.938;2023-02-15T12:39:25;17.20;1.00
3023;DHT22;1521;53.584;9.938;2023-02-15T12:44:28;17.30;1.00
3023;DHT22;1521;53.584;9.938;2023-02-15T12:47:00;17.40;1.00
3023;DHT22;1521;53.584;9.938;2023-02-15T12:49:28;17.20;1.00
3023;DHT22;1521;53.584;9.938;2023-02-15T12:51:56;17.20;1.00
3023;DHT22;1521;53.584;9.938;2023-02-15T12:54:31;17.30;1.00
3023;DHT22;1521;53.584;9.938;2023-02-15T12:56:58;17.40;1.00
3023;DHT22;1521;53.584;9.938;2023-02-15T12:59:24;17.40;1.00
3023;DHT22;1521;53.584;9.938;2023-02-15T13:01:51;17.80;1.00
3023;DHT22;1521;53.584;9.938;2023-02-15T13:04:26;17.80;1.00
3023;DHT22;1521;53.584;9.938;2023-02-15T13:06:55;17.90;1.00
3023;DHT22;1521;53.584;9.938;2023-02-15T13:12:09;18.00;1.00
3023;DHT22;1521;53.584;9.938;2023-02-15T13:14:36;17.80;1.00
3023;DHT22;1521;53.584;9.938;2023-02-15T13:17:04;17.80;1.00
3023;DHT22;1521;53.584;9.938;2023-02-15T13:19:51;17.50;1.00
3023;DHT22;1521;53.584;9.938;2023-02-15T13:22:22;17.50;1.00
3023;DHT22;1521;53.584;9.938;2023-02-15T13:24:51;17.60;1.00
3023;DHT22;1521;53.584;9.938;2023-02-15T13:27:23;17.60;1.00
3023;DHT22;1521;53.584;9.938;2023-02-15T13:29:52;17.50;1.00
3023;DHT22;1521;53.584;9.938;2023-02-15T13:32:38;17.50;1.00
3023;DHT22;1521;53.584;9.938;2023-02-15T13:35:14;17.50;1.00
3023;DHT22;1521;53.584;9.938;2023-02-15T13:38:14;17.70;1.00
3023;DHT22;1521;53.584;9.938;2023-02-15T13:41:04;17.70;1.00
3023;DHT22;1521;53.584;9.938;2023-02-15T13:52:24;15.50;1.00
3023;DHT22;1521;53.584;9.938;2023-02-15T14:00:21;13.00;1.00
3023;DHT22;1521;53.584;9.938;2023-02-15T14:02:55;12.50;1.00
3023;DHT22;1521;53.584;9.938;2023-02-15T14:11:27;12.80;1.00
3023;DHT22;1521;53.584;9.938;2023-02-15T14:19:32;12.80;1.00
3023;DHT22;1521;53.584;9.938;2023-02-15T14:27:27;12.60;1.00
3023;DHT22;1521;53.584;9.938;2023-02-15T14:30:12;12.80;1.00
3023;DHT22;1521;53.584;9.938;2023-02-15T14:32:44;13.10;1.00
3023;DHT22;1521;53.584;9.938;2023-02-15T14:35:26;13.00;1.00
3023;DHT22;1521;53.584;9.938;2023-02-15T14:38:09;12.60;1.00
3023;DHT22;1521;53.584;9.938;2023-02-15T14:43:32;11.40;1.00
3023;DHT22;1521;53.584;9.938;2023-02-15T14:48:45;10.50;1.00
3023;DHT22;1521;53.584;9.938;2023-02-15T14:54:10;10.20;1.00
3023;DHT22;1521;53.584;9.938;2023-02-15T14:56:35;10.00;1.00
3023;DHT22;1521;53.584;9.938;2023-02-15T14:59:19;9.80;1.00
3023;DHT22;1521;53.584;9.938;2023-02-15T15:01:57;9.70;16.90
3023;DHT22;1521;53.584;9.938;2023-02-15T15:04:31;9.70;28.20
3023;DHT22;1521;53.584;9.938;2023-02-15T15:09:37;9.60;70.10
3023;DHT22;1521;53.584;9.938;2023-02-15T15:14:49;9.50;90.70
3023;DHT22;1521;53.584;9.938;2023-02-15T15:22:38;9.30;99.90
3023;DHT22;1521;53.584;9.938;2023-02-15T15:27:53;9.10;99.90
3023;DHT22;1521;53.584;9.938;2023-02-15T15:43:51;8.70;99.90
3023;DHT22;1521;53.584;9.938;2023-02-15T15:49:14;8.50;1.00
3023;DHT22;1521;53.584;9.938;2023-02-15T15:51:42;8.40;1.00
3023;DHT22;1521;53.584;9.938;2023-02-15T15:54:18;8.40;1.00
3023;DHT22;1521;53.584;9.938;2023-02-15T15:56:48;8.40;1.00
3023;DHT22;1521;53.584;9.938;2023-02-15T15:59:20;8.30;1.00
3023;DHT22;1521;53.584;9.938;2023-02-15T16:01:47;8.10;1.00
3023;DHT22;1521;53.584;9.938;2023-02-15T16:04:31;8.00;1.00
3023;DHT22;1521;53.584;9.938;2023-02-15T16:07:05;7.90;83.40
3023;DHT22;1521;53.584;9.938;2023-02-15T16:09:38;7.80;99.90
3023;DHT22;1521;53.584;9.938;2023-02-15T16:12:04;7.70;1.00
3023;DHT22;1521;53.584;9.938;2023-02-15T16:14:40;7.60;1.00
3023;DHT22;1521;53.584;9.938;2023-02-15T16:17:16;7.50;1.00
3023;DHT22;1521;53.584;9.938;2023-02-15T16:19:43;7.40;1.00
3023;DHT22;1521;53.584;9.938;2023-02-15T16:22:23;7.40;1.00
3023;DHT22;1521;53.584;9.938;2023-02-15T16:25:07;7.30;1.00
3023;DHT22;1521;53.584;9.938;2023-02-15T16:27:41;7.20;99.90
3023;DHT22;1521;53.584;9.938;2023-02-15T16:32:43;7.10;99.90
3023;DHT22;1521;53.584;9.938;2023-02-15T16:35:14;7.00;99.90
3023;DHT22;1521;53.584;9.938;2023-02-15T16:37:40;6.90;1.00
3023;DHT22;1521;53.584;9.938;2023-02-15T16:40:06;6.90;1.00
3023;DHT22;1521;53.584;9.938;2023-02-15T16:42:32;6.80;1.00
3023;DHT22;1521;53.584;9.938;2023-02-15T16:45:08;6.80;1.00
3023;DHT22;1521;53.584;9.938;2023-02-15T16:47:39;6.60;92.50
3023;DHT22;1521;53.584;9.938;2023-02-15T16:50:05;6.60;96.60
3023;DHT22;1521;53.584;9.938;2023-02-15T16:52:31;6.50;99.90
3023;DHT22;1521;53.584;9.938;2023-02-15T16:55:03;6.40;99.90
3023;DHT22;1521;53.584;9.938;2023-02-15T16:57:35;6.40;1.00
3023;DHT22;1521;53.584;9.938;2023-02-15T17:00:05;6.30;1.00
3023;DHT22;1521;53.584;9.938;2023-02-15T17:02:32;6.30;1.00
3023;DHT22;1521;53.584;9.938;2023-02-15T17:08:05;6.20;99.90
3023;DHT22;1521;53.584;9.938;2023-02-15T17:10:33;6.20;1.00
3023;DHT22;1521;53.584;9.938;2023-02-15T17:13:15;6.10;1.00
3023;DHT22;1521;53.584;9.938;2023-02-15T17:21:19;6.20;1.00
3023;DHT22;1521;53.584;9.938;2023-02-15T17:23:47;6.10;1.00
3023;DHT22;1521;53.584;9.938;2023-02-15T17:26:23;6.10;99.90
3023;DHT22;1521;53.584;9.938;2023-02-15T17:28:54;6.00;1.00
3023;DHT22;1521;53.584;9.938;2023-02-15T17:31:26;6.10;1.00
3023;DHT22;1521;53.584;9.938;2023-02-15T17:33:55;6.00;1.00
3023;DHT22;1521;53.584;9.938;2023-02-15T17:36:24;5.90;1.00
3023;DHT22;1521;53.584;9.938;2023-02-15T17:41:30;5.70;99.90
3023;DHT22;1521;53.584;9.938;2023-02-15T17:43:56;5.70;1.00
3023;DHT22;1521;53.584;9.938;2023-02-15T17:46:22;5.70;99.90
3023;DHT22;1521;53.584;9.938;2023-02-15T17:48:50;5.70;99.90
3023;DHT22;1521;53.584;9.938;2023-02-15T17:51:17;5.60;1.00
3023;DHT22;1521;53.584;9.938;2023-02-15T17:53:43;5.60;62.30
3023;DHT22;1521;53.584;9.938;2023-02-15T17:56:28;5.70;1.00
3023;DHT22;1521;53.584;9.938;2023-02-15T17:58:53;5.70;99.90
3023;DHT22;1521;53.584;9.938;2023-02-15T18:01:20;5.70;99.90
3023;DHT22;1521;53.584;9.938;2023-02-15T18:04:08;5.70;1.00
3023;DHT22;1521;53.584;9.938;2023-02-15T18:06:55;5.80;99.90
3023;DHT22;1521;53.584;9.938;2023-02-15T18:09:39;5.50;1.00
3023;DHT22;1521;53.584;9.938;2023-02-15T18:12:26;5.50;99.90
3023;DHT22;1521;53.584;9.938;2023-02-15T18:14:53;5.50;1.00
3023;DHT22;1521;53.584;9.938;2023-02-15T18:17:25;5.40;1.00
3023;DHT22;1521;53.584;9.938;2023-02-15T18:19:51;5.30;99.90
3023;DHT22;1521;53.584;9.938;2023-02-15T18:22:19;5.40;99.90
3023;DHT22;1521;53.584;9.938;2023-02-15T18:24:47;5.30;99.90
3023;DHT22;1521;53.584;9.938;2023-02-15T18:27:14;5.30;99.90
3023;DHT22;1521;53.584;9.938;2023-02-15T18:29:40;5.20;1.00
3023;DHT22;1521;53.584;9.938;2023-02-15T18:32:18;5.30;1.00
3023;DHT22;1521;53.584;9.938;2023-02-15T18:34:47;5.40;1.00
3023;DHT22;1521;53.584;9.938;2023-02-15T18:37:17;5.40;1.00
3023;DHT22;1521;53.584;9.938;2023-02-15T18:39:46;5.30;1.00
3023;DHT22;1521;53.584;9.938;2023-02-15T18:42:24;5.20;1.00
3023;DHT22;1521;53.584;9.938;2023-02-15T18:44:54;5.20;99.90
3023;DHT22;1521;53.584;9.938;2023-02-15T18:47:21;5.00;99.90
3023;DHT22;1521;53.584;9.938;2023-02-15T18:49:47;5.00;1.00
3023;DHT22;1521;53.584;9.938;2023-02-15T18:52:22;4.90;99.90
3023;DHT22;1521;53.584;9.938;2023-02-15T18:54:54;4.90;1.00
3023;DHT22;1521;53.584;9.938;2023-02-15T18:57:20;4.80;1.00
3023;DHT22;1521;53.584;9.938;2023-02-15T18:59:45;4.90;99.90
3023;DHT22;1521;53.584;9.938;2023-02-15T19:02:16;4.90;99.90
3023;DHT22;1521;53.584;9.938;2023-02-15T19:04:43;4.80;99.90
3023;DHT22;1521;53.584;9.938;2023-02-15T19:07:16;4.80;99.90
3023;DHT22;1521;53.584;9.938;2023-02-15T19:09:46;4.80;99.90
3023;DHT22;1521;53.584;9.938;2023-02-15T19:12:13;4.70;99.90
3023;DHT22;1521;53.584;9.938;2023-02-15T19:14:39;4.70;99.90
3023;DHT22;1521;53.584;9.938;2023-02-15T19:17:13;4.60;1.00
3023;DHT22;1521;53.584;9.938;2023-02-15T19:19:39;4.60;1.00
3023;DHT22;1521;53.584;9.938;2023-02-15T19:22:05;4.50;1.00
3023;DHT22;1521;53.584;9.938;2023-02-15T19:24:36;4.50;1.00
3023;DHT22;1521;53.584;9.938;2023-02-15T19:27:03;4.40;1.00
3023;DHT22;1521;53.584;9.938;2023-02-15T19:29:29;4.50;1.00
3023;DHT22;1521;53.584;9.938;2023-02-15T19:31:55;4.40;1.00
3023;DHT22;1521;53.584;9.938;2023-02-15T19:34:22;4.40;1.00
3023;DHT22;1521;53.584;9.938;2023-02-15T19:36:50;4.30;1.00
3023;DHT22;1521;53.584;9.938;2023-02-15T19:41:50;4.30;1.00
3023;DHT22;1521;53.584;9.938;2023-02-15T19:44:16;4.30;1.00
3023;DHT22;1521;53.584;9.938;2023-02-15T19:46:43;4.30;1.00
3023;DHT22;1521;53.584;9.938;2023-02-15T19:49:09;4.20;1.00